createdAt,value
2018-09-08T00:01:21.867Z,100.00
2018-09-08T00:03:50.037Z,100.00
2018-09-08T00:06:23.525Z,100.00
2018-09-08T00:08:51.721Z,100.00
2018-09-08T00:11:19.873Z,100.00
2018-09-08T00:13:48.050Z,100.00
2018-09-08T00:16:21.709Z,100.00
2018-09-08T00:18:55.145Z,100.00
2018-09-08T00:21:28.625Z,100.00
2018-09-08T00:24:02.006Z,100.00
2018-09-08T00:26:33.212Z,100.00
2018-09-08T00:29:06.359Z,100.00
2018-09-08T00:31:34.504Z,100.00
2018-09-08T00:34:02.676Z,100.00
2018-09-08T00:36:30.830Z,100.00
2018-09-08T00:38:58.986Z,100.00
2018-09-08T00:41:27.147Z,100.00
2018-09-08T00:43:55.304Z,99.98
2018-09-08T00:46:23.496Z,100.00
2018-09-08T00:48:51.655Z,100.00
2018-09-08T00:51:19.822Z,99.46
2018-09-08T00:53:48.000Z,98.60
2018-09-08T00:56:16.148Z,99.43
2018-09-08T00:58:49.548Z,100.00
2018-09-08T01:01:17.704Z,98.81
2018-09-08T01:03:45.887Z,100.00
2018-09-08T01:06:14.060Z,100.00
2018-09-08T01:08:42.204Z,97.94
2018-09-08T01:11:10.345Z,99.85
2018-09-08T01:13:38.456Z,98.23
2018-09-08T01:16:06.799Z,97.41
2018-09-08T01:18:36.808Z,98.82
2018-09-08T01:21:06.541Z,97.51
2018-09-08T01:23:34.679Z,98.96
2018-09-08T01:26:03.213Z,100.00
2018-09-08T01:28:31.353Z,97.87
2018-09-08T01:30:59.474Z,96.94
2018-09-08T01:33:27.797Z,96.98
2018-09-08T01:35:56.644Z,96.08
2018-09-08T01:38:24.950Z,97.77
2018-09-08T01:40:53.091Z,97.88
2018-09-08T01:43:21.220Z,99.00
2018-09-08T01:45:49.493Z,96.48
2018-09-08T01:48:17.650Z,97.68
2018-09-08T01:50:45.785Z,97.60
2018-09-08T01:53:13.918Z,97.77
2018-09-08T01:55:42.093Z,98.81
2018-09-08T01:58:10.226Z,99.04
2018-09-08T02:00:38.378Z,99.01
2018-09-08T02:03:12.908Z,97.88
2018-09-08T02:05:41.055Z,98.74
2018-09-08T02:08:09.205Z,98.01
2018-09-08T02:10:37.335Z,97.34
2018-09-08T02:13:05.489Z,98.18
2018-09-08T02:15:33.642Z,98.44
2018-09-08T02:18:01.797Z,96.79
2018-09-08T02:20:29.942Z,99.20
2018-09-08T02:22:58.078Z,99.92
2018-09-08T02:25:26.243Z,99.79
2018-09-08T02:27:54.374Z,97.93
2018-09-08T02:30:22.510Z,99.20
2018-09-08T02:32:50.745Z,98.98
2018-09-08T02:35:18.916Z,98.33
2018-09-08T02:37:47.000Z,98.18
2018-09-08T02:40:15.149Z,98.24
2018-09-08T02:42:43.257Z,96.57
2018-09-08T02:45:11.429Z,97.53
2018-09-08T02:47:39.574Z,98.36
2018-09-08T02:50:19.114Z,98.92
2018-09-08T02:52:46.233Z,99.54
2018-09-08T02:55:13.356Z,99.89
2018-09-08T02:57:40.477Z,97.93
2018-09-08T03:00:07.584Z,98.25
2018-09-08T03:02:34.714Z,98.59
2018-09-08T03:05:01.841Z,97.44
2018-09-08T03:07:28.991Z,98.46
2018-09-08T03:09:56.136Z,99.34
2018-09-08T03:12:23.269Z,100.00
2018-09-08T03:14:50.414Z,100.00
2018-09-08T03:17:17.548Z,99.84
2018-09-08T03:19:44.679Z,98.97
2018-09-08T03:22:11.807Z,99.72
2018-09-08T03:24:38.925Z,100.00
2018-09-08T03:27:06.070Z,99.70
2018-09-08T03:29:33.180Z,99.35
2018-09-08T03:32:00.287Z,100.00
2018-09-08T03:34:27.431Z,100.00
2018-09-08T03:36:54.557Z,100.00
2018-09-08T03:39:21.702Z,99.44
2018-09-08T03:41:48.849Z,99.27
2018-09-08T03:44:16.026Z,98.82
2018-09-08T03:46:43.180Z,100.00
2018-09-08T03:49:10.297Z,99.95
2018-09-08T03:51:37.521Z,100.00
2018-09-08T03:54:04.643Z,99.28
2018-09-08T03:56:31.760Z,99.86
2018-09-08T03:58:58.974Z,100.00
2018-09-08T04:01:26.062Z,99.44
2018-09-08T04:03:54.573Z,99.67
2018-09-08T04:06:22.713Z,99.46
2018-09-08T04:08:50.869Z,99.58
2018-09-08T04:11:19.052Z,100.00
2018-09-08T04:13:47.149Z,100.00
2018-09-08T04:16:15.443Z,99.90
2018-09-08T04:18:43.601Z,99.71
2018-09-08T04:21:11.780Z,99.44
2018-09-08T04:23:39.962Z,99.16
2018-09-08T04:26:08.130Z,99.26
2018-09-08T04:28:36.289Z,99.26
2018-09-08T04:31:04.982Z,99.15
2018-09-08T04:33:33.593Z,98.70
2018-09-08T04:36:02.388Z,99.32
2018-09-08T04:38:30.602Z,99.24
2018-09-08T04:40:58.793Z,99.80
2018-09-08T04:43:26.888Z,99.56
2018-09-08T04:45:55.137Z,99.88
2018-09-08T04:48:23.252Z,99.78
2018-09-08T04:50:51.396Z,99.06
2018-09-08T04:53:19.559Z,98.96
2018-09-08T04:55:47.716Z,99.04
2018-09-08T04:58:15.846Z,98.89
2018-09-08T05:00:43.991Z,99.55
2018-09-08T05:03:12.131Z,99.35
2018-09-08T05:05:40.265Z,99.08
2018-09-08T05:08:08.424Z,99.10
2018-09-08T05:10:36.577Z,99.06
2018-09-08T05:13:04.726Z,99.02
2018-09-08T05:15:32.858Z,97.94
2018-09-08T05:18:01.011Z,97.39
2018-09-08T05:20:29.141Z,97.48
2018-09-08T05:22:57.317Z,97.20
2018-09-08T05:25:25.489Z,97.67
2018-09-08T05:27:53.647Z,96.76
2018-09-08T05:30:21.789Z,96.12
2018-09-08T05:32:49.904Z,97.59
2018-09-08T05:35:18.081Z,97.31
2018-09-08T05:37:46.265Z,97.10
2018-09-08T05:40:14.405Z,96.65
2018-09-08T05:42:42.545Z,97.06
2018-09-08T05:45:10.768Z,95.65
2018-09-08T05:47:38.895Z,95.39
2018-09-08T05:50:07.054Z,95.13
2018-09-08T05:52:35.221Z,95.32
2018-09-08T05:55:03.360Z,93.78
2018-09-08T05:57:31.544Z,93.66
2018-09-08T05:59:59.702Z,94.63
2018-09-08T06:02:27.836Z,93.26
2018-09-08T06:04:55.967Z,93.63
2018-09-08T06:07:24.121Z,93.33
2018-09-08T06:09:52.273Z,93.39
2018-09-08T06:12:21.324Z,93.44
2018-09-08T06:14:49.458Z,92.79
2018-09-08T06:17:17.635Z,92.36
2018-09-08T06:19:45.802Z,94.27
2018-09-08T06:22:13.934Z,93.63
2018-09-08T06:24:42.059Z,94.12
2018-09-08T06:27:10.216Z,94.34
2018-09-08T06:29:38.369Z,94.19
2018-09-08T06:32:06.549Z,93.85
2018-09-08T06:34:34.700Z,94.11
2018-09-08T06:37:02.837Z,93.58
2018-09-08T06:39:30.985Z,94.48
2018-09-08T06:41:59.146Z,94.35
2018-09-08T06:44:27.313Z,94.53
2018-09-08T06:46:55.459Z,93.86
2018-09-08T06:49:23.697Z,93.98
2018-09-08T06:51:52.104Z,93.20
2018-09-08T06:54:20.261Z,93.40
2018-09-08T06:56:48.445Z,92.51
2018-09-08T06:59:16.605Z,92.71
2018-09-08T07:01:44.745Z,91.73
2018-09-08T07:04:12.893Z,90.04
2018-09-08T07:06:41.033Z,90.87
2018-09-08T07:09:15.888Z,90.66
2018-09-08T07:11:44.065Z,91.18
2018-09-08T07:14:12.238Z,89.73
2018-09-08T07:16:40.410Z,89.33
2018-09-08T07:19:08.570Z,90.10
2018-09-08T07:21:36.738Z,88.37
2018-09-08T07:24:04.919Z,88.33
2018-09-08T07:26:33.109Z,88.76
2018-09-08T07:29:01.269Z,88.57
2018-09-08T07:31:29.561Z,87.30
2018-09-08T07:33:57.743Z,87.15
2018-09-08T07:36:25.895Z,87.70
2018-09-08T07:38:54.047Z,88.01
2018-09-08T07:41:22.165Z,88.69
2018-09-08T07:43:50.317Z,89.69
2018-09-08T07:46:18.454Z,89.24
2018-09-08T07:48:46.589Z,88.21
2018-09-08T07:51:14.724Z,87.80
2018-09-08T07:53:42.967Z,88.69
2018-09-08T07:56:11.028Z,89.29
2018-09-08T07:58:39.204Z,88.83
2018-09-08T08:01:07.321Z,87.35
2018-09-08T08:03:36.340Z,86.82
2018-09-08T08:06:04.493Z,87.70
2018-09-08T08:08:32.651Z,87.48
2018-09-08T08:11:00.803Z,86.20
2018-09-08T08:13:28.935Z,87.30
2018-09-08T08:15:57.090Z,86.06
2018-09-08T08:18:25.259Z,86.25
2018-09-08T08:20:53.373Z,86.62
2018-09-08T08:23:21.587Z,87.82
2018-09-08T08:25:49.618Z,86.20
2018-09-08T08:28:17.738Z,87.21
2018-09-08T08:30:45.893Z,87.74
2018-09-08T08:33:15.622Z,87.10
2018-09-08T08:35:44.080Z,86.51
2018-09-08T08:38:12.235Z,85.92
2018-09-08T08:40:40.448Z,87.74
2018-09-08T08:43:08.654Z,86.06
2018-09-08T08:45:36.808Z,87.25
2018-09-08T08:48:04.974Z,86.90
2018-09-08T08:50:44.591Z,85.91
2018-09-08T08:53:24.121Z,85.36
2018-09-08T08:55:52.281Z,85.70
2018-09-08T08:58:20.438Z,85.71
2018-09-08T09:00:48.572Z,84.88
2018-09-08T09:03:16.727Z,85.25
2018-09-08T09:05:44.914Z,85.28
2018-09-08T09:08:13.094Z,86.01
2018-09-08T09:10:41.627Z,83.92
2018-09-08T09:13:09.837Z,84.53
2018-09-08T09:15:37.988Z,83.85
2018-09-08T09:18:06.141Z,84.37
2018-09-08T09:20:45.749Z,82.82
2018-09-08T09:23:25.180Z,83.36
2018-09-08T09:25:53.365Z,84.42
2018-09-08T09:28:21.499Z,82.97
2018-09-08T09:30:49.617Z,82.32
2018-09-08T09:33:17.744Z,83.55
2018-09-08T09:35:45.898Z,81.26
2018-09-08T09:38:14.024Z,83.24
2018-09-08T09:40:42.202Z,81.86
2018-09-08T09:43:10.379Z,83.23
2018-09-08T09:45:38.517Z,81.57
2018-09-08T09:48:06.628Z,83.76
2018-09-08T09:50:34.771Z,81.38
2018-09-08T09:53:02.956Z,81.39
2018-09-08T09:55:31.058Z,80.89
2018-09-08T09:57:59.179Z,80.47
2018-09-08T10:00:32.569Z,80.13
2018-09-08T10:03:06.738Z,79.54
2018-09-08T10:05:35.924Z,79.39
2018-09-08T10:08:04.178Z,77.62
2018-09-08T10:10:32.358Z,77.01
2018-09-08T10:13:00.530Z,78.52
2018-09-08T10:15:28.714Z,77.68
2018-09-08T10:17:56.832Z,76.68
2018-09-08T10:20:24.994Z,75.55
2018-09-08T10:22:53.231Z,74.94
2018-09-08T10:25:21.380Z,73.02
2018-09-08T10:27:49.836Z,73.51
2018-09-08T10:30:18.364Z,73.90
2018-09-08T10:32:47.161Z,74.66
2018-09-08T10:35:15.453Z,73.85
2018-09-08T10:37:43.600Z,73.61
2018-09-08T10:40:12.716Z,74.98
2018-09-08T10:42:40.868Z,71.81
2018-09-08T10:45:09.397Z,72.25
2018-09-08T10:47:37.620Z,71.58
2018-09-08T10:50:06.031Z,70.91
2018-09-08T10:52:39.413Z,72.26
2018-09-08T10:55:07.553Z,71.49
2018-09-08T10:57:35.717Z,71.56
2018-09-08T11:00:04.376Z,71.11
2018-09-08T11:02:33.036Z,69.41
2018-09-08T11:05:01.536Z,68.58
2018-09-08T11:07:29.772Z,69.76
2018-09-08T11:09:57.947Z,70.22
2018-09-08T11:12:26.076Z,69.04
2018-09-08T11:14:54.195Z,68.37
2018-09-08T11:17:22.309Z,67.46
2018-09-08T11:19:50.487Z,68.05
2018-09-08T11:22:18.641Z,68.38
2018-09-08T11:24:46.770Z,69.46
2018-09-08T11:27:15.081Z,67.66
2018-09-08T11:29:43.358Z,68.76
2018-09-08T11:32:11.515Z,70.45
2018-09-08T11:34:39.669Z,69.24
2018-09-08T11:37:07.794Z,68.81
2018-09-08T11:39:36.026Z,70.38
2018-09-08T11:42:04.261Z,69.99
2018-09-08T11:44:32.424Z,68.38
2018-09-08T11:47:00.621Z,68.24
2018-09-08T11:49:28.841Z,67.42
2018-09-08T11:51:56.981Z,67.68
2018-09-08T11:54:25.186Z,67.07
2018-09-08T11:56:53.368Z,65.99
2018-09-08T11:59:21.500Z,67.03
2018-09-08T12:01:49.677Z,63.64
2018-09-08T12:04:17.849Z,64.27
2018-09-08T12:06:46.001Z,63.59
2018-09-08T12:09:14.184Z,64.41
2018-09-08T12:11:42.365Z,65.22
2018-09-08T12:14:10.958Z,65.45
2018-09-08T12:16:39.176Z,64.41
2018-09-08T12:19:07.405Z,66.82
2018-09-08T12:21:35.568Z,67.33
2018-09-08T12:24:03.704Z,63.75
2018-09-08T12:26:31.850Z,65.58
2018-09-08T12:29:00.029Z,64.11
2018-09-08T12:31:28.189Z,65.17
2018-09-08T12:33:56.640Z,64.08
2018-09-08T12:36:24.788Z,64.29
2018-09-08T12:38:53.020Z,64.87
2018-09-08T12:41:21.177Z,65.73
2018-09-08T12:43:49.430Z,65.08
2018-09-08T12:46:17.619Z,66.40
2018-09-08T12:48:45.758Z,64.08
2018-09-08T12:51:13.900Z,63.68
2018-09-08T12:53:42.042Z,64.47
2018-09-08T12:56:10.256Z,64.30
2018-09-08T12:58:38.405Z,65.37
2018-09-08T13:01:06.591Z,64.63
2018-09-08T13:03:34.957Z,64.32
2018-09-08T13:06:04.111Z,65.37
2018-09-08T13:08:32.252Z,64.58
2018-09-08T13:11:00.416Z,64.81
2018-09-08T13:13:28.565Z,66.28
2018-09-08T13:15:56.717Z,63.27
2018-09-08T13:18:24.890Z,63.55
2018-09-08T13:20:53.040Z,62.52
2018-09-08T13:23:21.514Z,64.06
2018-09-08T13:25:49.701Z,60.67
2018-09-08T13:28:18.290Z,62.11
2018-09-08T13:30:46.577Z,60.46
2018-09-08T13:33:14.694Z,61.57
2018-09-08T13:35:42.818Z,61.61
2018-09-08T13:38:10.975Z,61.39
2018-09-08T13:40:39.118Z,60.97
2018-09-08T13:43:07.256Z,60.40
2018-09-08T13:45:35.392Z,60.69
2018-09-08T13:48:03.602Z,60.53
2018-09-08T13:50:31.757Z,62.86
2018-09-08T13:52:59.917Z,61.83
2018-09-08T13:55:28.080Z,59.42
2018-09-08T13:57:56.214Z,59.74
2018-09-08T14:00:24.357Z,59.68
2018-09-08T14:02:52.533Z,60.68
2018-09-08T14:05:20.711Z,60.85
2018-09-08T14:07:53.668Z,60.44
2018-09-08T14:10:21.812Z,60.82
2018-09-08T14:12:49.976Z,62.12
2018-09-08T14:15:18.162Z,59.69
2018-09-08T14:17:46.328Z,60.62
2018-09-08T14:20:14.497Z,60.87
2018-09-08T14:22:42.659Z,60.57
2018-09-08T14:25:10.777Z,59.64
2018-09-08T14:27:38.912Z,60.03
2018-09-08T14:30:07.286Z,96.11
2018-09-08T14:32:35.414Z,57.47
2018-09-08T14:35:03.618Z,57.37
2018-09-08T14:37:31.773Z,59.56
2018-09-08T14:39:59.908Z,61.60
2018-09-08T14:42:28.046Z,61.77
2018-09-08T14:44:56.237Z,59.70
2018-09-08T14:47:24.447Z,61.47
2018-09-08T14:49:52.556Z,60.73
2018-09-08T14:52:20.726Z,60.80
2018-09-08T14:54:48.890Z,60.91
2018-09-08T14:57:17.068Z,60.50
2018-09-08T14:59:45.194Z,60.14
2018-09-08T15:02:13.342Z,60.85
2018-09-08T15:04:41.541Z,60.38
2018-09-08T15:07:09.745Z,61.72
2018-09-08T15:09:37.899Z,59.63
2018-09-08T15:12:06.131Z,60.13
2018-09-08T15:14:34.349Z,60.79
2018-09-08T15:17:02.488Z,63.15
2018-09-08T15:19:30.689Z,62.98
2018-09-08T15:21:58.806Z,62.21
2018-09-08T15:24:27.075Z,61.38
2018-09-08T15:26:55.269Z,62.14
2018-09-08T15:29:23.405Z,61.84
2018-09-08T15:31:51.572Z,61.44
2018-09-08T15:34:19.783Z,62.25
2018-09-08T15:36:47.929Z,62.68
2018-09-08T15:39:16.055Z,60.08
2018-09-08T15:41:44.241Z,62.06
2018-09-08T15:44:12.477Z,63.43
2018-09-08T15:46:40.869Z,62.63
2018-09-08T15:49:09.078Z,62.22
2018-09-08T15:51:37.435Z,62.79
2018-09-08T15:54:05.519Z,62.87
2018-09-08T15:56:33.675Z,62.67
2018-09-08T15:59:01.805Z,63.29
2018-09-08T16:01:30.009Z,63.32
2018-09-08T16:03:58.175Z,64.02
2018-09-08T16:06:26.327Z,63.86
2018-09-08T16:08:54.464Z,62.39
2018-09-08T16:11:22.681Z,64.59
2018-09-08T16:13:50.770Z,64.89
2018-09-08T16:16:18.977Z,65.60
2018-09-08T16:18:47.173Z,64.20
2018-09-08T16:21:15.273Z,66.10
2018-09-08T16:23:43.380Z,67.75
2018-09-08T16:26:11.534Z,64.73
2018-09-08T16:28:39.742Z,65.73
2018-09-08T16:31:07.844Z,66.33
2018-09-08T16:33:36.006Z,63.77
2018-09-08T16:36:04.152Z,65.52
2018-09-08T16:38:32.316Z,66.50
2018-09-08T16:41:01.308Z,66.59
2018-09-08T16:43:29.471Z,64.67
2018-09-08T16:45:57.644Z,65.95
2018-09-08T16:48:25.804Z,65.71
2018-09-08T16:50:53.928Z,64.55
2018-09-08T16:53:22.074Z,66.30
2018-09-08T16:55:50.233Z,64.72
2018-09-08T16:58:18.357Z,66.91
2018-09-08T17:00:46.464Z,66.87
2018-09-08T17:03:14.645Z,68.64
2018-09-08T17:05:42.766Z,66.82
2018-09-08T17:08:15.081Z,67.53
2018-09-08T17:10:43.398Z,67.32
2018-09-08T17:13:11.753Z,68.96
2018-09-08T17:15:39.937Z,68.32
2018-09-08T17:18:08.186Z,69.78
2018-09-08T17:20:37.321Z,69.36
2018-09-08T17:23:05.573Z,71.02
2018-09-08T17:25:33.842Z,69.25
2018-09-08T17:28:01.979Z,71.21
2018-09-08T17:30:30.173Z,69.75
2018-09-08T17:32:58.358Z,72.07
2018-09-08T17:35:26.509Z,72.32
2018-09-08T17:37:54.655Z,69.51
2018-09-08T17:40:22.800Z,71.04
2018-09-08T17:42:51.051Z,70.02
2018-09-08T17:45:19.963Z,71.54
2018-09-08T17:47:48.132Z,71.94
2018-09-08T17:50:16.263Z,72.41
2018-09-08T17:52:44.426Z,72.31
2018-09-08T17:55:12.621Z,72.11
2018-09-08T17:57:40.875Z,73.30
2018-09-08T18:00:08.953Z,73.15
2018-09-08T18:02:37.090Z,72.89
2018-09-08T18:05:05.222Z,72.81
2018-09-08T18:07:33.360Z,73.69
2018-09-08T18:10:01.514Z,73.84
2018-09-08T18:12:29.657Z,74.86
2018-09-08T18:14:57.813Z,72.45
2018-09-08T18:17:25.979Z,74.30
2018-09-08T18:19:54.108Z,74.73
2018-09-08T18:22:22.244Z,74.20
2018-09-08T18:24:50.389Z,72.88
2018-09-08T18:27:18.487Z,74.14
2018-09-08T18:29:46.641Z,73.30
2018-09-08T18:32:14.772Z,75.44
2018-09-08T18:34:42.929Z,75.58
2018-09-08T18:37:17.775Z,75.76
2018-09-08T18:39:45.934Z,75.32
2018-09-08T18:42:14.076Z,76.56
2018-09-08T18:44:42.263Z,76.15
2018-09-08T18:47:10.437Z,76.73
2018-09-08T18:49:38.658Z,77.32
2018-09-08T18:52:07.590Z,77.44
2018-09-08T18:54:35.737Z,78.13
2018-09-08T18:57:03.914Z,78.51
2018-09-08T18:59:32.068Z,78.32
2018-09-08T19:02:00.241Z,78.20
2018-09-08T19:04:28.416Z,78.62
2018-09-08T19:06:56.563Z,78.52
2018-09-08T19:09:24.666Z,77.97
2018-09-08T19:11:52.819Z,78.15
2018-09-08T19:14:26.330Z,78.87
2018-09-08T19:16:54.468Z,78.32
2018-09-08T19:19:22.613Z,79.00
2018-09-08T19:21:50.785Z,79.41
2018-09-08T19:24:24.448Z,79.77
2018-09-08T19:26:52.633Z,79.76
2018-09-08T19:29:26.107Z,79.48
2018-09-08T19:31:54.253Z,79.56
2018-09-08T19:34:22.397Z,80.22
2018-09-08T19:36:50.549Z,80.62
2018-09-08T19:39:18.714Z,80.43
2018-09-08T19:41:46.877Z,80.42
2018-09-08T19:44:15.036Z,80.38
2018-09-08T19:46:48.709Z,79.69
2018-09-08T19:49:16.825Z,79.86
2018-09-08T19:51:45.961Z,79.87
2018-09-08T19:54:14.088Z,79.97
2018-09-08T19:56:47.693Z,79.58
2018-09-08T19:59:15.816Z,80.71
2018-09-08T20:01:43.984Z,80.93
2018-09-08T20:04:12.155Z,80.40
2018-09-08T20:06:40.309Z,80.31
2018-09-08T20:09:08.466Z,80.69
2018-09-08T20:11:37.921Z,80.99
2018-09-08T20:14:06.228Z,79.81
2018-09-08T20:16:34.397Z,80.32
2018-09-08T20:19:02.525Z,80.91
2018-09-08T20:21:30.643Z,79.95
2018-09-08T20:23:58.741Z,79.93
2018-09-08T20:26:26.925Z,80.35
2018-09-08T20:28:55.110Z,80.40
2018-09-08T20:31:23.201Z,80.92
2018-09-08T20:33:51.375Z,80.31
2018-09-08T20:36:19.556Z,80.37
2018-09-08T20:38:47.705Z,79.56
2018-09-08T20:41:15.850Z,78.73
2018-09-08T20:43:44.034Z,80.18
2018-09-08T20:46:12.129Z,80.00
2018-09-08T20:48:40.261Z,80.74
2018-09-08T20:51:08.356Z,80.93
2018-09-08T20:53:36.504Z,80.94
2018-09-08T20:56:04.626Z,80.70
2018-09-08T20:58:32.867Z,81.16
2018-09-08T21:01:01.060Z,81.49
2018-09-08T21:03:29.225Z,81.39
2018-09-08T21:05:57.374Z,81.37
2018-09-08T21:08:25.525Z,81.18
2018-09-08T21:10:53.678Z,80.90
2018-09-08T21:13:21.837Z,81.23
2018-09-08T21:15:49.973Z,81.40
2018-09-08T21:18:18.092Z,80.85
2018-09-08T21:20:46.240Z,81.59
2018-09-08T21:23:14.422Z,81.85
2018-09-08T21:25:42.569Z,81.38
2018-09-08T21:28:10.716Z,81.76
2018-09-08T21:30:38.843Z,81.38
2018-09-08T21:33:07.017Z,82.04
2018-09-08T21:35:35.161Z,80.82
2018-09-08T21:38:03.308Z,81.13
2018-09-08T21:40:31.453Z,81.80
2018-09-08T21:42:59.613Z,81.46
2018-09-08T21:45:27.788Z,81.06
2018-09-08T21:47:56.022Z,82.69
2018-09-08T21:50:24.157Z,82.19
2018-09-08T21:52:52.298Z,81.47
2018-09-08T21:55:20.461Z,82.85
2018-09-08T21:57:48.629Z,82.22
2018-09-08T22:00:16.765Z,83.38
2018-09-08T22:02:44.927Z,83.13
2018-09-08T22:05:13.086Z,83.00
2018-09-08T22:07:41.657Z,83.06
2018-09-08T22:10:10.001Z,82.99
2018-09-08T22:12:38.097Z,83.46
2018-09-08T22:15:06.264Z,83.42
2018-09-08T22:17:34.393Z,83.41
2018-09-08T22:20:02.548Z,83.65
2018-09-08T22:22:30.683Z,83.43
2018-09-08T22:24:58.821Z,83.63
2018-09-08T22:27:26.992Z,84.37
2018-09-08T22:29:55.150Z,84.03
2018-09-08T22:32:23.309Z,83.87
2018-09-08T22:34:51.479Z,83.64
2018-09-08T22:37:20.116Z,83.35
2018-09-08T22:39:48.371Z,83.42
2018-09-08T22:42:16.513Z,83.60
2018-09-08T22:44:44.725Z,83.49
2018-09-08T22:47:12.861Z,83.98
2018-09-08T22:49:41.078Z,82.97
2018-09-08T22:52:09.203Z,83.77
2018-09-08T22:54:37.361Z,83.43
2018-09-08T22:57:05.608Z,84.00
2018-09-08T22:59:33.762Z,83.31
2018-09-08T23:02:01.913Z,84.08
2018-09-08T23:04:30.069Z,83.86
2018-09-08T23:06:58.249Z,84.72
2018-09-08T23:09:26.384Z,84.04
2018-09-08T23:11:54.505Z,82.70
2018-09-08T23:14:22.653Z,83.00
2018-09-08T23:16:50.761Z,83.97
2018-09-08T23:19:18.884Z,84.00
2018-09-08T23:21:47.027Z,84.33
2018-09-08T23:24:15.203Z,83.22
2018-09-08T23:26:43.314Z,82.85
2018-09-08T23:29:11.437Z,83.32
2018-09-08T23:31:39.596Z,82.75
2018-09-08T23:34:07.760Z,82.47
2018-09-08T23:36:35.888Z,81.30
2018-09-08T23:39:05.050Z,82.66
2018-09-08T23:41:33.201Z,82.51
2018-09-08T23:44:01.445Z,82.66
2018-09-08T23:46:30.108Z,82.31
2018-09-08T23:48:58.271Z,82.21
2018-09-08T23:51:26.407Z,82.92
2018-09-08T23:53:55.222Z,82.12
2018-09-08T23:56:23.404Z,83.63
2018-09-08T23:58:51.548Z,82.77
